Time;durP1;ratioP1;P1;durP2;ratioP2;P2;SDS_P1;SDS_P2;PMS_P1;PMS_P2;Temp;Humidity;BMP_temperature;BMP_pressure;BME280_temperature;BME280_humidity;BME280_pressure;Samples;Min_cycle;Max_cycle;Signal;HPM_P1;HPM_P2
2021/12/14 00:00:39;;;;;;;8.40;4.80;;;9.00;99.90;;;;;;5109660;28;20030;-76
2021/12/14 00:03:06;;;;;;;10.25;5.10;;;8.90;99.90;;;;;;5084803;28;20422;-76
2021/12/14 00:05:32;;;;;;;8.07;5.13;;;8.90;99.90;;;;;;5087429;28;20047;-76
2021/12/14 00:08:01;;;;;;;8.60;5.30;;;8.90;99.90;;;;;;5115031;28;20028;-76
2021/12/14 00:13:06;;;;;;;8.38;5.93;;;8.90;99.90;;;;;;5112888;28;20365;-76
2021/12/14 00:15:32;;;;;;;9.10;5.55;;;8.90;99.90;;;;;;5097671;28;20076;-76
2021/12/14 00:18:03;;;;;;;6.28;5.22;;;8.80;99.90;;;;;;5084445;28;20024;-77
2021/12/14 00:20:46;;;;;;;8.10;5.22;;;8.80;99.90;;;;;;5104688;28;20095;-78
2021/12/14 00:25:53;;;;;;;7.22;5.20;;;8.80;99.90;;;;;;5109020;28;20499;-76
2021/12/14 00:28:25;;;;;;;8.18;5.50;;;8.80;99.90;;;;;;5092536;28;20031;-76
2021/12/14 00:30:53;;;;;;;7.55;5.35;;;8.80;99.90;;;;;;5093425;28;20110;-76
2021/12/14 00:33:24;;;;;;;9.35;6.00;;;8.80;99.90;;;;;;5102576;28;20024;-76
2021/12/14 00:35:50;;;;;;;10.68;5.60;;;8.80;99.90;;;;;;5112614;28;20032;-76
2021/12/14 00:38:21;;;;;;;8.30;6.32;;;8.80;99.90;;;;;;5071827;28;20392;-76
2021/12/14 00:40:53;;;;;;;9.00;6.10;;;8.80;99.90;;;;;;5095610;28;20867;-76
2021/12/14 00:43:20;;;;;;;8.52;5.32;;;8.80;99.90;;;;;;5113417;28;20039;-76
2021/12/14 00:45:46;;;;;;;6.70;5.20;;;8.80;99.90;;;;;;5095959;28;20118;-76
2021/12/14 00:48:14;;;;;;;8.60;5.65;;;8.70;99.90;;;;;;5075150;28;20029;-76
2021/12/14 00:50:46;;;;;;;6.18;4.93;;;8.70;99.90;;;;;;5094337;28;20511;-76
2021/12/14 00:53:12;;;;;;;7.68;4.22;;;8.70;99.90;;;;;;5103775;28;20032;-76
2021/12/14 00:55:43;;;;;;;7.72;4.97;;;8.70;99.90;;;;;;5098702;28;20060;-76
2021/12/14 00:58:09;;;;;;;7.00;5.03;;;8.70;99.90;;;;;;5103420;28;20020;-76
2021/12/14 01:00:41;;;;;;;6.78;5.30;;;8.70;99.90;;;;;;5088511;28;20511;-77
2021/12/14 01:03:08;;;;;;;8.07;5.40;;;8.70;99.90;;;;;;5113187;28;20039;-76
2021/12/14 01:05:38;;;;;;;7.20;5.68;;;8.70;99.90;;;;;;5113288;28;20035;-77
2021/12/14 01:08:08;;;;;;;8.77;5.50;;;8.70;99.90;;;;;;5083955;28;20747;-76
2021/12/14 01:11:07;;;;;;;9.75;6.38;;;8.70;99.90;;;;;;5082093;28;20545;-77
2021/12/14 01:13:38;;;;;;;9.65;5.72;;;8.70;99.90;;;;;;5070097;28;20505;-76
2021/12/14 01:16:18;;;;;;;12.05;6.28;;;8.70;99.90;;;;;;5093116;28;20059;-76
2021/12/14 01:19:02;;;;;;;9.68;6.43;;;8.70;99.90;;;;;;5080693;28;20026;-76
2021/12/14 01:24:20;;;;;;;13.52;6.57;;;8.60;99.90;;;;;;5102448;28;20035;-76
2021/12/14 01:26:46;;;;;;;15.18;7.93;;;8.60;99.90;;;;;;5100441;28;20016;-76
2021/12/14 01:29:14;;;;;;;9.18;6.57;;;8.60;99.90;;;;;;5097494;28;20444;-76
2021/12/14 01:31:42;;;;;;;10.95;6.95;;;8.60;99.90;;;;;;5103314;28;20076;-76
2021/12/14 01:34:20;;;;;;;12.23;7.57;;;8.60;99.90;;;;;;5106481;28;20411;-76
2021/12/14 01:36:51;;;;;;;11.98;7.55;;;8.60;99.90;;;;;;5106176;28;20066;-76
2021/12/14 01:41:55;;;;;;;13.02;8.05;;;8.60;99.90;;;;;;5112091;28;20388;-76
2021/12/14 01:44:22;;;;;;;14.52;8.90;;;8.60;99.90;;;;;;5074117;28;20435;-76
2021/12/14 01:46:56;;;;;;;16.17;8.35;;;8.60;99.90;;;;;;5104616;28;20043;-76
2021/12/14 01:49:24;;;;;;;17.60;8.48;;;8.60;99.90;;;;;;5095335;28;20036;-77
2021/12/14 01:51:53;;;;;;;15.35;8.60;;;8.60;99.90;;;;;;5103480;28;20032;-77
2021/12/14 01:54:23;;;;;;;14.48;9.13;;;8.60;99.90;;;;;;5096679;28;20082;-77
2021/12/14 01:56:51;;;;;;;14.43;8.77;;;8.60;99.90;;;;;;5104329;28;20020;-76
2021/12/14 01:59:23;;;;;;;15.50;10.10;;;8.60;99.90;;;;;;5075611;28;20370;-76
2021/12/14 02:02:08;;;;;;;14.10;9.27;;;8.60;99.90;;;;;;5102547;28;20050;-77
2021/12/14 02:04:38;;;;;;;19.08;9.77;;;8.60;99.90;;;;;;5073255;28;20097;-76
2021/12/14 02:07:06;;;;;;;15.25;9.57;;;8.60;99.90;;;;;;5110830;28;20084;-76
2021/12/14 02:09:34;;;;;;;12.77;8.98;;;8.50;99.90;;;;;;5106203;28;20034;-76
2021/12/14 02:12:10;;;;;;;14.98;9.00;;;8.50;99.90;;;;;;5102537;28;20034;-76
2021/12/14 02:14:37;;;;;;;13.65;8.82;;;8.60;99.90;;;;;;5091194;28;20103;-76
2021/12/14 02:17:07;;;;;;;16.75;9.98;;;8.50;99.90;;;;;;5097028;28;20043;-76
2021/12/14 02:19:33;;;;;;;16.65;10.13;;;8.50;99.90;;;;;;5101501;28;20027;-76
2021/12/14 02:22:00;;;;;;;16.38;10.07;;;8.50;99.90;;;;;;5101875;28;20055;-76
2021/12/14 02:24:29;;;;;;;14.73;9.23;;;8.50;99.90;;;;;;5083457;28;20609;-76
2021/12/14 02:26:57;;;;;;;14.48;9.90;;;8.50;99.90;;;;;;5108515;28;20032;-76
2021/12/14 02:29:27;;;;;;;19.55;11.68;;;8.50;99.90;;;;;;5089875;28;20484;-76
2021/12/14 02:32:00;;;;;;;15.95;10.20;;;8.50;99.90;;;;;;5103921;28;20119;-76
2021/12/14 02:34:26;;;;;;;16.17;10.32;;;8.50;99.90;;;;;;5101784;28;20489;-77
2021/12/14 02:36:52;;;;;;;13.48;9.75;;;8.50;99.90;;;;;;5086091;28;20054;-76
2021/12/14 02:39:46;;;;;;;12.90;9.50;;;8.50;99.90;;;;;;5060993;28;20054;-76
2021/12/14 02:42:19;;;;;;;18.92;10.25;;;8.50;99.90;;;;;;5105550;28;20028;-77
2021/12/14 02:44:47;;;;;;;16.58;10.55;;;8.50;99.90;;;;;;5096562;28;20073;-76
2021/12/14 02:47:16;;;;;;;15.43;10.70;;;8.40;99.90;;;;;;5108325;28;20016;-76
2021/12/14 02:49:43;;;;;;;15.60;10.05;;;8.40;99.90;;;;;;5076033;28;20032;-76
2021/12/14 02:52:12;;;;;;;18.63;10.38;;;8.40;99.90;;;;;;5070718;28;20028;-76
2021/12/14 02:54:46;;;;;;;14.95;10.07;;;8.40;99.90;;;;;;5098780;28;20050;-76
2021/12/14 02:57:19;;;;;;;16.83;10.48;;;8.40;99.90;;;;;;5107814;28;20114;-76
2021/12/14 02:59:47;;;;;;;15.27;10.88;;;8.40;99.90;;;;;;5094739;28;20121;-76
2021/12/14 03:02:17;;;;;;;16.55;10.60;;;8.40;99.90;;;;;;5110595;28;20054;-76
2021/12/14 03:04:46;;;;;;;14.45;9.98;;;8.40;99.90;;;;;;5112513;28;20039;-76
2021/12/14 03:07:13;;;;;;;;;;;8.40;99.90;;;;;;5091958;28;20420;-76
2021/12/14 03:12:39;;;;;;;17.27;10.55;;;8.40;99.90;;;;;;5111382;28;20028;-76
2021/12/14 03:15:16;;;;;;;22.70;12.35;;;8.40;99.90;;;;;;5105510;28;20027;-76
2021/12/14 03:17:44;;;;;;;15.30;10.73;;;8.40;99.90;;;;;;5108632;28;20031;-76
2021/12/14 03:20:15;;;;;;;18.52;10.90;;;8.40;99.90;;;;;;5099784;28;20016;-76
2021/12/14 03:22:50;;;;;;;21.00;10.63;;;8.40;99.90;;;;;;5100103;28;20077;-76
2021/12/14 03:25:19;;;;;;;16.55;10.23;;;8.30;99.90;;;;;;5112301;28;20035;-76
2021/12/14 03:27:46;;;;;;;23.08;12.38;;;8.40;99.90;;;;;;5089631;28;20032;-76
2021/12/14 03:30:49;;;;;;;13.98;10.00;;;8.30;99.90;;;;;;5104689;28;20475;-76
2021/12/14 03:33:20;;;;;;;18.35;11.27;;;8.30;99.90;;;;;;5088161;28;20044;-76
2021/12/14 03:35:52;;;;;;;18.80;10.82;;;8.30;99.90;;;;;;5100124;28;20157;-76
2021/12/14 03:38:28;;;;;;;18.92;11.68;;;8.30;99.90;;;;;;5106225;28;20048;-76
2021/12/14 03:41:02;;;;;;;16.67;11.20;;;8.30;99.90;;;;;;5106285;28;20015;-76
2021/12/14 03:43:28;;;;;;;15.85;10.90;;;8.40;99.90;;;;;;5092433;28;20051;-76
2021/12/14 03:45:55;;;;;;;18.38;11.73;;;8.40;99.90;;;;;;5095829;28;20023;-77
2021/12/14 03:48:27;;;;;;;15.60;10.73;;;8.40;99.90;;;;;;5071365;28;20035;-76
2021/12/14 03:50:53;;;;;;;17.38;11.38;;;8.30;99.90;;;;;;5089451;28;20110;-76
2021/12/14 03:53:20;;;;;;;15.60;10.63;;;8.40;99.90;;;;;;5065769;28;20108;-76
2021/12/14 03:55:51;;;;;;;13.93;10.00;;;8.40;99.90;;;;;;5109217;28;20037;-76
2021/12/14 03:58:24;;;;;;;14.82;10.85;;;8.40;99.90;;;;;;5113835;28;20020;-76
2021/12/14 04:01:06;;;;;;;16.13;10.85;;;8.40;99.90;;;;;;5108246;28;20686;-76
2021/12/14 04:03:32;;;;;;;14.70;9.70;;;8.40;99.90;;;;;;5106930;28;20499;-76
2021/12/14 04:05:59;;;;;;;16.30;11.20;;;8.40;99.90;;;;;;5106113;28;20047;-76
2021/12/14 04:08:27;;;;;;;16.65;11.50;;;8.40;99.90;;;;;;5096491;28;20066;-76
2021/12/14 04:10:56;;;;;;;18.02;10.40;;;8.40;99.90;;;;;;5074802;28;20043;-76
2021/12/14 04:13:59;;;;;;;15.38;10.52;;;8.40;99.90;;;;;;5086429;28;20028;-76
2021/12/14 04:16:26;;;;;;;17.52;11.20;;;8.40;99.90;;;;;;5074994;28;20036;-76
2021/12/14 04:18:55;;;;;;;15.55;10.52;;;8.40;99.90;;;;;;5077938;28;20396;-76
2021/12/14 04:21:21;;;;;;;13.20;9.98;;;8.40;99.90;;;;;;5096524;28;20107;-76
2021/12/14 04:23:49;;;;;;;13.45;9.90;;;8.40;99.90;;;;;;5113937;28;20098;-76
2021/12/14 04:26:17;;;;;;;19.00;11.88;;;8.40;99.90;;;;;;5076315;28;20032;-76
2021/12/14 04:28:52;;;;;;;17.98;11.55;;;8.40;99.90;;;;;;5087565;28;20043;-76
2021/12/14 04:31:19;;;;;;;18.13;11.55;;;8.40;99.90;;;;;;5111313;28;20032;-76
2021/12/14 04:33:46;;;;;;;16.27;11.68;;;8.30;99.90;;;;;;5087317;28;20036;-77
2021/12/14 04:36:15;;;;;;;16.35;10.40;;;8.30;99.90;;;;;;5063833;28;20132;-76
2021/12/14 04:38:53;;;;;;;14.43;10.32;;;8.30;99.90;;;;;;5087899;28;20024;-76
2021/12/14 04:52:24;;;;;;;15.60;11.33;;;8.30;99.90;;;;;;5096103;28;20074;-76
2021/12/14 04:54:59;;;;;;;17.83;12.68;;;8.40;99.90;;;;;;5085588;28;20036;-76
2021/12/14 04:57:36;;;;;;;16.23;11.35;;;8.30;99.90;;;;;;5108122;28;20040;-76
2021/12/14 05:00:20;;;;;;;15.50;11.48;;;8.30;99.90;;;;;;5088685;28;20023;-76
2021/12/14 05:02:46;;;;;;;17.08;12.27;;;8.40;99.90;;;;;;5108590;28;20023;-76
2021/12/14 05:05:19;;;;;;;15.65;11.65;;;8.30;99.90;;;;;;5090296;28;20032;-76
2021/12/14 05:10:52;;;;;;;19.48;12.65;;;8.40;99.90;;;;;;5094626;28;20020;-76
2021/12/14 05:13:32;;;;;;;17.25;12.25;;;8.40;99.90;;;;;;5104854;28;20027;-76
2021/12/14 05:15:58;;;;;;;20.08;12.50;;;8.40;99.90;;;;;;5093822;28;20493;-76
2021/12/14 05:18:24;;;;;;;20.80;13.30;;;8.40;99.90;;;;;;5082864;28;20403;-76
2021/12/14 05:20:51;;;;;;;22.27;11.98;;;8.40;99.90;;;;;;5110314;28;20019;-76
2021/12/14 05:23:32;;;;;;;16.50;11.85;;;8.40;99.90;;;;;;5113036;28;20579;-76
2021/12/14 05:26:01;;;;;;;18.05;12.05;;;8.40;99.90;;;;;;5101391;28;20026;-77
2021/12/14 05:28:27;;;;;;;17.13;11.68;;;8.40;99.90;;;;;;5088865;28;20035;-76
2021/12/14 05:30:58;;;;;;;20.75;13.45;;;8.40;99.90;;;;;;5078387;28;20032;-76
2021/12/14 05:33:31;;;;;;;17.75;12.20;;;8.40;99.90;;;;;;5095138;28;20024;-76
2021/12/14 05:36:01;;;;;;;19.90;12.50;;;8.30;99.90;;;;;;5097474;28;20063;-77
2021/12/14 05:38:43;;;;;;;19.38;12.25;;;8.40;99.90;;;;;;5092971;28;20023;-76
2021/12/14 05:43:54;;;;;;;20.88;12.50;;;8.30;99.90;;;;;;5092483;28;20078;-76
2021/12/14 05:46:22;;;;;;;23.33;13.40;;;8.30;99.90;;;;;;5109899;28;20039;-76
2021/12/14 05:48:47;;;;;;;17.02;11.60;;;8.30;99.90;;;;;;5098040;28;20506;-76
2021/12/14 05:51:14;;;;;;;17.23;12.00;;;8.30;99.90;;;;;;5095256;28;20035;-76
2021/12/14 05:53:43;;;;;;;16.75;11.10;;;8.30;99.90;;;;;;5104293;28;20076;-77
2021/12/14 05:56:18;;;;;;;20.55;13.32;;;8.30;99.90;;;;;;5110530;28;20043;-76
2021/12/14 05:58:45;;;;;;;20.02;12.88;;;8.30;99.90;;;;;;5094821;28;20020;-76
2021/12/14 06:01:14;;;;;;;21.05;13.38;;;8.30;99.90;;;;;;5074501;28;20551;-76
2021/12/14 06:03:53;;;;;;;22.13;13.13;;;8.30;99.90;;;;;;5111124;28;20044;-77
2021/12/14 06:06:28;;;;;;;21.17;12.88;;;8.30;99.90;;;;;;5112648;28;20102;-76
2021/12/14 06:09:08;;;;;;;18.88;12.85;;;8.30;99.90;;;;;;5112928;28;20384;-76
2021/12/14 06:11:34;;;;;;;20.73;12.38;;;8.30;99.90;;;;;;5112366;28;20077;-76
2021/12/14 06:14:00;;;;;;;21.48;12.80;;;8.30;99.90;;;;;;5110868;28;20388;-76
2021/12/14 06:16:27;;;;;;;20.98;12.82;;;8.30;99.90;;;;;;5107493;28;20030;-76
2021/12/14 06:18:54;;;;;;;22.30;12.85;;;8.30;99.90;;;;;;5099551;28;20021;-77
2021/12/14 06:21:31;;;;;;;19.50;12.60;;;8.30;99.90;;;;;;5077937;28;20019;-76
2021/12/14 06:24:02;;;;;;;20.83;13.30;;;8.30;99.90;;;;;;5073774;28;20085;-77
2021/12/14 06:26:40;;;;;;;19.38;12.38;;;8.30;99.90;;;;;;5077865;28;20107;-76
2021/12/14 06:29:37;;;;;;;18.55;12.00;;;8.30;99.90;;;;;;5111262;28;20031;-77
2021/12/14 06:32:16;;;;;;;21.27;12.50;;;8.30;99.90;;;;;;5082136;28;20031;-77
2021/12/14 06:34:49;;;;;;;22.98;13.48;;;8.20;99.90;;;;;;5112804;28;20482;-76
2021/12/14 06:40:07;;;;;;;20.63;13.50;;;8.20;99.90;;;;;;5110038;28;20080;-77
2021/12/14 06:42:34;;;;;;;19.48;11.75;;;8.20;99.90;;;;;;5094580;28;20024;-77
2021/12/14 06:45:16;;;;;;;18.45;12.20;;;8.20;99.90;;;;;;5112193;28;20055;-77
2021/12/14 06:47:44;;;;;;;19.48;12.25;;;8.20;99.90;;;;;;5112052;28;20064;-77
2021/12/14 06:50:17;;;;;;;18.70;12.63;;;8.20;99.90;;;;;;5111531;28;20041;-77
2021/12/14 06:52:43;;;;;;;19.55;13.30;;;8.20;99.90;;;;;;5094222;28;20072;-77
2021/12/14 06:55:23;;;;;;;23.83;13.98;;;8.20;99.90;;;;;;5060884;28;20389;-77
2021/12/14 06:57:49;;;;;;;20.15;12.60;;;8.20;99.90;;;;;;5106201;28;20024;-77
2021/12/14 07:00:16;;;;;;;17.67;12.20;;;8.20;99.90;;;;;;5093437;28;20057;-77
2021/12/14 07:02:50;;;;;;;20.17;13.68;;;8.20;99.90;;;;;;5105872;28;20027;-77
2021/12/14 07:05:21;;;;;;;21.05;13.02;;;8.20;99.90;;;;;;5089831;28;20052;-77
2021/12/14 07:07:47;;;;;;;21.60;14.65;;;8.20;99.90;;;;;;5088117;28;20060;-77
2021/12/14 07:10:13;;;;;;;24.63;13.93;;;8.20;99.90;;;;;;5089401;28;20060;-77
2021/12/14 07:12:40;;;;;;;20.40;13.80;;;8.20;99.90;;;;;;5071565;28;20174;-77
2021/12/14 07:15:12;;;;;;;19.85;13.15;;;8.20;99.90;;;;;;5088377;28;20560;-76
2021/12/14 07:17:43;;;;;;;22.52;12.80;;;8.30;99.90;;;;;;5083533;28;20082;-76
2021/12/14 07:20:11;;;;;;;22.98;15.02;;;8.20;99.90;;;;;;5090151;28;20023;-77
2021/12/14 07:22:41;;;;;;;23.93;15.47;;;8.30;99.90;;;;;;5088894;28;20510;-77
2021/12/14 07:25:12;;;;;;;26.40;14.02;;;8.20;99.90;;;;;;5091891;28;20093;-76
2021/12/14 07:27:49;;;;;;;22.65;15.45;;;8.20;99.90;;;;;;5091122;28;20048;-77
2021/12/14 07:30:18;;;;;;;26.10;15.40;;;8.30;99.90;;;;;;5090915;28;20028;-77
2021/12/14 07:32:45;;;;;;;25.83;15.93;;;8.20;99.90;;;;;;5093234;28;20101;-77
2021/12/14 07:35:28;;;;;;;27.63;16.15;;;8.20;99.90;;;;;;5093551;28;20056;-77
2021/12/14 07:37:57;;;;;;;22.85;15.05;;;8.20;99.90;;;;;;5095495;28;20024;-76
2021/12/14 07:40:23;;;;;;;;;;;8.20;99.90;;;;;;5095974;28;20044;-77
2021/12/14 07:43:18;;;;;;;25.30;16.08;;;8.20;99.90;;;;;;5095354;28;19943;-77
2021/12/14 07:45:46;;;;;;;24.33;15.45;;;8.10;99.90;;;;;;5093844;28;20023;-77
2021/12/14 07:48:13;;;;;;;22.58;15.32;;;8.20;99.90;;;;;;5088143;28;20024;-77
2021/12/14 07:50:47;;;;;;;25.73;16.45;;;8.20;99.90;;;;;;5082790;28;20029;-77
2021/12/14 07:53:13;;;;;;;24.52;16.20;;;8.20;99.90;;;;;;5073906;28;20025;-77
2021/12/14 07:55:43;;;;;;;24.30;15.95;;;8.20;99.90;;;;;;5072690;28;20033;-77
2021/12/14 07:58:10;;;;;;;24.70;15.88;;;8.20;99.90;;;;;;5092548;28;20054;-77
2021/12/14 08:00:40;;;;;;;27.60;17.02;;;8.20;99.90;;;;;;5093082;28;20051;-77
2021/12/14 08:03:08;;;;;;;29.83;16.88;;;8.30;99.90;;;;;;5093667;28;20016;-77
2021/12/14 08:05:45;;;;;;;28.40;17.10;;;8.30;99.90;;;;;;5093668;28;20048;-76
2021/12/14 08:08:18;;;;;;;26.15;16.73;;;8.30;99.90;;;;;;5081399;28;20266;-77
2021/12/14 08:11:29;;;;;;;25.27;14.98;;;8.30;99.90;;;;;;5076492;28;20542;-77
2021/12/14 08:13:58;;;;;;;25.70;16.30;;;8.30;99.90;;;;;;5085309;28;20481;-77
2021/12/14 08:16:24;;;;;;;30.38;18.15;;;8.30;99.90;;;;;;5092136;28;20024;-77
2021/12/14 08:18:51;;;;;;;29.83;17.48;;;8.30;99.90;;;;;;5093397;28;20427;-77
2021/12/14 08:21:23;;;;;;;29.27;17.73;;;8.20;99.90;;;;;;5092585;28;20039;-77
2021/12/14 08:23:51;;;;;;;29.88;17.20;;;8.30;99.90;;;;;;5074525;28;20029;-77
2021/12/14 08:26:27;;;;;;;31.08;17.35;;;8.30;99.90;;;;;;5082902;28;20032;-77
2021/12/14 08:29:15;;;;;;;26.00;16.55;;;8.30;99.90;;;;;;5093125;28;20016;-77
2021/12/14 08:31:45;;;;;;;29.33;18.02;;;8.30;99.90;;;;;;5085261;28;20029;-77
2021/12/14 08:34:19;;;;;;;29.05;18.15;;;8.30;99.90;;;;;;5072368;28;20028;-77
2021/12/14 08:36:48;;;;;;;29.80;18.52;;;8.30;99.90;;;;;;5073765;28;20149;-77
2021/12/14 08:39:23;;;;;;;31.42;18.80;;;8.30;99.90;;;;;;5073096;28;20048;-77
2021/12/14 08:41:57;;;;;;;27.00;16.58;;;8.30;99.90;;;;;;5084444;28;20024;-77
2021/12/14 08:44:38;;;;;;;32.90;17.90;;;8.30;99.90;;;;;;5092849;28;20123;-77
2021/12/14 08:47:10;;;;;;;28.98;17.73;;;8.30;99.90;;;;;;5094252;28;20024;-77
2021/12/14 08:49:37;;;;;;;27.13;17.15;;;8.40;99.90;;;;;;5078621;28;20561;-77
2021/12/14 08:52:04;;;;;;;28.17;17.15;;;8.40;99.90;;;;;;5092271;28;20032;-77
2021/12/14 08:54:33;;;;;;;29.63;17.35;;;8.40;99.90;;;;;;5075381;28;20389;-77
2021/12/14 08:57:14;;;;;;;27.73;17.23;;;8.40;99.90;;;;;;5077837;28;20059;-77
2021/12/14 08:59:44;;;;;;;38.08;19.40;;;8.40;99.90;;;;;;5083131;28;20020;-77
2021/12/14 09:02:14;;;;;;;33.08;18.25;;;8.40;99.90;;;;;;5092260;28;20020;-77
2021/12/14 09:04:45;;;;;;;29.38;18.27;;;8.40;99.90;;;;;;5091896;28;20055;-77
2021/12/14 09:07:26;;;;;;;27.70;17.60;;;8.40;99.90;;;;;;5092330;28;20055;-77
2021/12/14 09:09:53;;;;;;;30.08;18.80;;;8.40;99.90;;;;;;5092962;28;20031;-82
2021/12/14 09:12:24;;;;;;;29.30;18.05;;;8.40;99.90;;;;;;5084392;28;20032;-77
2021/12/14 09:14:51;;;;;;;33.90;19.27;;;8.40;99.90;;;;;;5088695;28;20493;-77
2021/12/14 09:17:22;;;;;;;32.30;19.17;;;8.40;99.90;;;;;;5075053;28;20032;-77
2021/12/14 09:19:57;;;;;;;34.30;20.15;;;8.40;99.90;;;;;;5087407;28;20028;-77
2021/12/14 09:22:29;;;;;;;30.15;18.15;;;8.50;99.90;;;;;;5087021;28;20024;-77
2021/12/14 09:24:57;;;;;;;33.72;19.70;;;8.50;99.90;;;;;;5093672;28;20032;-77
2021/12/14 09:27:25;;;;;;;31.23;18.30;;;8.50;99.90;;;;;;5084742;28;20028;-77
2021/12/14 09:29:52;;;;;;;30.73;18.67;;;8.50;99.90;;;;;;5092396;28;20028;-77
2021/12/14 09:32:24;;;;;;;34.63;18.17;;;8.50;99.90;;;;;;5091866;28;20074;-77
2021/12/14 09:34:51;;;;;;;32.47;18.90;;;8.50;99.90;;;;;;5092333;28;20094;-77
2021/12/14 09:37:18;;;;;;;32.58;18.85;;;8.60;99.90;;;;;;5075080;28;20119;-77
2021/12/14 09:39:48;;;;;;;35.10;19.90;;;8.60;99.90;;;;;;5093408;28;20024;-77
2021/12/14 09:42:19;;;;;;;33.97;18.92;;;8.60;99.90;;;;;;5089871;28;20028;-77
2021/12/14 09:44:46;;;;;;;31.25;17.95;;;8.60;99.90;;;;;;5081577;28;20024;-76
2021/12/14 09:47:20;;;;;;;37.03;20.08;;;8.70;99.90;;;;;;5084206;28;20119;-77
2021/12/14 09:49:48;;;;;;;35.53;19.65;;;8.70;99.90;;;;;;5090269;28;20020;-77
2021/12/14 09:52:30;;;;;;;35.95;19.13;;;8.70;99.90;;;;;;5090428;28;20043;-77
2021/12/14 09:54:57;;;;;;;35.70;20.83;;;8.80;99.90;;;;;;5092606;28;20058;-77
2021/12/14 09:57:28;;;;;;;36.65;21.33;;;8.80;99.90;;;;;;5092912;28;20020;-77
2021/12/14 09:59:56;;;;;;;37.75;20.27;;;8.80;99.90;;;;;;5071514;28;20064;-77
2021/12/14 10:02:38;;;;;;;37.50;19.73;;;8.80;99.90;;;;;;5092239;28;20160;-77
2021/12/14 10:05:13;;;;;;;34.72;20.23;;;8.80;99.90;;;;;;5091439;28;20048;-77
2021/12/14 10:07:39;;;;;;;33.40;19.88;;;8.80;99.90;;;;;;5091686;28;20365;-77
2021/12/14 10:10:07;;;;;;;34.85;20.45;;;8.90;99.90;;;;;;5093031;28;20381;-77
2021/12/14 10:15:15;;;;;;;35.65;20.40;;;8.80;99.90;;;;;;5092842;28;20020;-77
2021/12/14 10:17:42;;;;;;;34.33;20.17;;;8.80;99.90;;;;;;5093058;28;20039;-77
2021/12/14 10:20:14;;;;;;;38.83;21.40;;;8.80;99.90;;;;;;5089887;28;20110;-77
2021/12/14 10:22:40;;;;;;;40.35;21.17;;;8.90;99.90;;;;;;5074034;28;20071;-77
2021/12/14 10:25:14;;;;;;;37.75;21.27;;;8.80;99.90;;;;;;5087244;28;20415;-76
2021/12/14 10:27:41;;;;;;;38.90;21.55;;;8.80;99.90;;;;;;5087743;28;20384;-77
2021/12/14 10:30:14;;;;;;;39.58;20.90;;;8.90;99.90;;;;;;5082360;28;20040;-78
2021/12/14 10:32:41;;;;;;;35.90;20.90;;;8.90;99.90;;;;;;5074594;28;20021;-77
2021/12/14 10:35:15;;;;;;;39.90;22.42;;;8.90;99.90;;;;;;5066524;28;20089;-78
2021/12/14 10:38:07;;;;;;;38.72;21.67;;;8.90;99.90;;;;;;5075114;28;20412;-77
2021/12/14 10:43:24;;;;;;;38.25;22.08;;;9.00;99.90;;;;;;5074375;28;20055;-78
2021/12/14 10:45:51;;;;;;;37.45;21.42;;;9.00;99.90;;;;;;5076286;28;20074;-78
2021/12/14 10:48:19;;;;;;;38.53;22.50;;;9.00;99.90;;;;;;5074150;28;20028;-77
2021/12/14 10:50:48;;;;;;;40.03;22.73;;;9.10;99.90;;;;;;5073423;28;20016;-78
2021/12/14 10:53:15;;;;;;;39.08;21.63;;;9.10;99.90;;;;;;5080046;28;20705;-78
2021/12/14 10:55:52;;;;;;;40.38;21.90;;;9.00;99.90;;;;;;5072991;28;20039;-77
2021/12/14 10:58:21;;;;;;;45.63;23.63;;;9.10;99.90;;;;;;5073153;28;20475;-78
2021/12/14 11:00:58;;;;;;;38.67;22.30;;;9.10;99.90;;;;;;5078302;28;20054;-77
2021/12/14 11:03:30;;;;;;;39.30;22.08;;;9.20;99.90;;;;;;5077561;28;20028;-78
2021/12/14 11:05:59;;;;;;;38.88;22.52;;;9.20;99.90;;;;;;5096237;28;20108;-78
2021/12/14 11:08:44;;;;;;;37.40;22.10;;;9.30;99.90;;;;;;5077808;28;20060;-78
2021/12/14 11:11:27;;;;;;;41.63;22.98;;;9.30;99.90;;;;;;5069062;28;20032;-78
2021/12/14 11:14:01;;;;;;;39.63;22.73;;;9.30;99.90;;;;;;5078279;28;20024;-78
2021/12/14 11:19:38;;;;;;;39.15;22.42;;;9.30;99.90;;;;;;5076481;28;20036;-77
2021/12/14 11:22:14;;;;;;;41.17;22.55;;;9.40;99.90;;;;;;5095350;28;20020;-78
2021/12/14 11:24:42;;;;;;;41.97;23.85;;;9.40;99.90;;;;;;5096763;28;20062;-78
2021/12/14 11:27:29;;;;;;;41.20;22.75;;;9.50;99.90;;;;;;5080841;28;20036;-78
2021/12/14 11:30:10;;;;;;;41.88;23.33;;;9.50;99.90;;;;;;5078650;28;20130;-78
2021/12/14 11:32:41;;;;;;;41.33;23.20;;;9.60;99.90;;;;;;5094706;28;20030;-77
2021/12/14 11:35:24;;;;;;;36.80;23.00;;;9.60;99.90;;;;;;5082449;28;20028;-78
2021/12/14 11:37:51;;;;;;;44.00;24.88;;;9.60;99.90;;;;;;5097831;28;20349;-78
2021/12/14 11:40:20;;;;;;;43.15;24.42;;;9.70;99.90;;;;;;5113974;28;20030;-78
2021/12/14 11:42:46;;;;;;;;;;;9.60;99.90;;;;;;5079498;28;20028;-78
2021/12/14 11:45:17;;;;;;;38.40;22.85;;;9.60;99.90;;;;;;5093394;28;19930;-77
2021/12/14 11:47:58;;;;;;;44.17;23.98;;;9.60;99.90;;;;;;5115956;28;20432;-77
2021/12/14 11:50:45;;;;;;;39.42;24.10;;;9.60;99.90;;;;;;5094550;28;20031;-76
2021/12/14 11:53:17;;;;;;;39.40;23.25;;;9.60;99.90;;;;;;5114643;28;20043;-76
2021/12/14 11:55:53;;;;;;;40.92;23.30;;;9.70;99.90;;;;;;5113723;28;20027;-76
2021/12/14 11:58:33;;;;;;;41.42;22.55;;;9.70;99.90;;;;;;5089922;28;20034;-76
2021/12/14 12:01:15;;;;;;;40.72;23.85;;;9.70;99.90;;;;;;5095741;28;20026;-76
2021/12/14 12:04:11;;;;;;;39.83;23.30;;;9.70;99.90;;;;;;5081933;28;20027;-75
2021/12/14 12:09:33;;;;;;;36.88;22.38;;;9.80;99.90;;;;;;5102385;28;20040;-75
2021/12/14 12:12:04;;;;;;;37.75;23.35;;;9.80;99.90;;;;;;5073946;28;20075;-75
2021/12/14 12:14:54;;;;;;;35.47;23.20;;;9.90;99.90;;;;;;5079054;28;20040;-76
2021/12/14 12:17:40;;;;;;;42.97;23.77;;;9.90;99.90;;;;;;5101389;28;20110;-76
2021/12/14 12:20:30;;;;;;;37.15;23.50;;;10.00;99.90;;;;;;5112944;28;20031;-75
2021/12/14 12:23:00;;;;;;;42.10;22.98;;;10.00;99.90;;;;;;5113122;28;20032;-75
2021/12/14 12:25:33;;;;;;;40.00;22.98;;;10.00;99.90;;;;;;5094674;28;20055;-75
2021/12/14 12:28:04;;;;;;;42.65;24.42;;;10.00;99.90;;;;;;5113553;28;20037;-75
2021/12/14 12:31:00;;;;;;;39.45;23.35;;;10.10;99.90;;;;;;5094506;28;20027;-76
2021/12/14 12:33:38;;;;;;;42.72;24.45;;;10.00;99.90;;;;;;5093053;28;20040;-76
2021/12/14 12:36:11;;;;;;;41.63;24.50;;;10.10;99.90;;;;;;5112918;28;20483;-75
2021/12/14 12:38:52;;;;;;;42.63;24.00;;;10.10;99.90;;;;;;5112792;28;20073;-76
2021/12/14 12:41:48;;;;;;;40.80;23.15;;;10.10;99.90;;;;;;5094702;28;20123;-75
2021/12/14 12:44:27;;;;;;;41.88;23.88;;;10.20;99.90;;;;;;5093106;28;20031;-76
2021/12/14 12:47:10;;;;;;;43.78;25.30;;;10.20;99.90;;;;;;5074821;28;20051;-75
2021/12/14 12:49:41;;;;;;;38.58;24.33;;;10.20;99.90;;;;;;5092888;28;20023;-74
2021/12/14 12:52:27;;;;;;;40.28;23.58;;;10.20;99.90;;;;;;5092798;28;20122;-75
2021/12/14 12:55:09;;;;;;;36.97;22.25;;;10.20;99.90;;;;;;5092653;28;20055;-75
2021/12/14 12:57:56;;;;;;;41.58;23.42;;;10.20;99.90;;;;;;5092452;28;20024;-75
2021/12/14 13:00:23;;;;;;;42.53;23.67;;;10.20;99.90;;;;;;5090967;28;20504;-75
2021/12/14 13:02:58;;;;;;;41.47;23.67;;;10.20;99.90;;;;;;5074310;28;20426;-75
2021/12/14 13:05:55;;;;;;;46.35;24.42;;;10.20;99.90;;;;;;5092301;28;20052;-75
2021/12/14 13:08:44;;;;;;;41.45;23.38;;;10.20;99.90;;;;;;5053010;28;20036;-75
2021/12/14 13:11:16;;;;;;;43.53;25.17;;;10.20;99.90;;;;;;5074312;28;20070;-75
2021/12/14 13:13:48;;;;;;;41.97;24.35;;;10.20;99.90;;;;;;5092401;28;20095;-75
2021/12/14 13:16:20;;;;;;;42.72;24.08;;;10.10;99.90;;;;;;5092219;28;20031;-75
2021/12/14 13:18:52;;;;;;;41.58;23.25;;;10.10;99.90;;;;;;5092198;28;20103;-75
2021/12/14 13:21:57;;;;;;;40.38;23.40;;;10.10;99.90;;;;;;5073573;28;20024;-75
2021/12/14 13:24:26;;;;;;;45.17;24.30;;;10.10;99.90;;;;;;4989429;28;20841;-75
2021/12/14 13:27:03;;;;;;;39.83;23.45;;;10.10;99.90;;;;;;5093894;28;20050;-75
2021/12/14 13:29:46;;;;;;;39.10;24.23;;;10.10;99.90;;;;;;5094023;28;20377;-75
2021/12/14 13:32:12;;;;;;;39.50;23.58;;;10.10;99.90;;;;;;5111695;28;20023;-75
2021/12/14 13:34:59;;;;;;;40.90;23.17;;;10.10;99.90;;;;;;5093846;28;20035;-75
2021/12/14 13:37:37;;;;;;;40.72;23.50;;;10.10;99.90;;;;;;5093635;28;20095;-75
2021/12/14 13:40:13;;;;;;;42.50;24.55;;;10.10;99.90;;;;;;5098698;28;20035;-75
2021/12/14 13:42:44;;;;;;;43.15;23.80;;;10.10;99.90;;;;;;5091680;28;20073;-75
2021/12/14 13:45:23;;;;;;;46.45;24.63;;;10.10;99.90;;;;;;5091081;28;20103;-75
2021/12/14 13:47:50;;;;;;;41.65;23.55;;;10.10;99.90;;;;;;5092449;28;20031;-75
2021/12/14 13:50:32;;;;;;;40.63;24.73;;;10.10;99.90;;;;;;5087597;28;20477;-75
2021/12/14 13:52:59;;;;;;;40.05;24.35;;;10.10;99.90;;;;;;5111099;28;20088;-75